Time;durP1;ratioP1;P1;durP2;ratioP2;P2;SDS_P1;SDS_P2;PMS_P1;PMS_P2;Temp;Humidity;BMP_temperature;BMP_pressure;BME280_temperature;BME280_humidity;BME280_pressure;Samples;Min_cycle;Max_cycle;Signal;HPM_P1;HPM_P2
2022/11/09 00:01:15;;;;;;;21.27;12.57;;;;;;;10.17;100.00;101129.03;5028669;28;20103;-73
2022/11/09 00:03:41;;;;;;;18.98;11.80;;;;;;;10.15;100.00;101130.94;5030898;28;20029;-73
2022/11/09 00:06:06;;;;;;;19.70;11.70;;;;;;;10.14;100.00;101120.66;5032421;28;20095;-73
2022/11/09 00:08:32;;;;;;;19.58;11.93;;;;;;;10.13;100.00;101122.44;5028219;28;20029;-73
2022/11/09 00:11:05;;;;;;;16.42;11.88;;;;;;;10.11;100.00;101118.31;5035671;28;20380;-73
2022/11/09 00:13:34;;;;;;;24.85;12.95;;;;;;;10.09;100.00;101120.19;5028746;28;20412;-73
2022/11/09 00:16:00;;;;;;;23.83;15.15;;;;;;;10.10;100.00;101122.69;5033050;28;20040;-73
2022/11/09 00:18:27;;;;;;;24.83;15.80;;;;;;;10.13;100.00;101121.59;5027426;28;20416;-73
2022/11/09 00:20:52;;;;;;;26.33;15.75;;;;;;;10.18;100.00;101125.50;5032304;28;20037;-73
2022/11/09 00:23:18;;;;;;;21.08;15.20;;;;;;;10.22;100.00;101126.91;5026514;28;20512;-73
2022/11/09 00:25:43;;;;;;;24.38;14.98;;;;;;;10.23;100.00;101123.38;5028536;28;20033;-73
2022/11/09 00:28:08;;;;;;;24.65;14.75;;;;;;;10.27;100.00;101123.94;5029456;28;20026;-73
2022/11/09 00:30:34;;;;;;;21.75;14.57;;;;;;;10.30;100.00;101127.13;5030981;28;20108;-73
2022/11/09 00:32:59;;;;;;;21.33;13.60;;;;;;;10.32;100.00;101120.97;5029259;28;20021;-73
2022/11/09 00:35:25;;;;;;;21.67;14.38;;;;;;;10.40;100.00;101126.38;5034654;28;20125;-73
2022/11/09 00:37:50;;;;;;;22.67;15.20;;;;;;;10.47;100.00;101119.66;5031339;28;20029;-73
2022/11/09 00:40:16;;;;;;;20.80;14.05;;;;;;;10.47;100.00;101119.66;5030915;28;20037;-73
2022/11/09 00:42:41;;;;;;;18.02;13.32;;;;;;;10.48;100.00;101116.09;5033104;28;20029;-73
2022/11/09 00:45:07;;;;;;;19.95;13.43;;;;;;;10.51;100.00;101126.28;5026738;28;20545;-73
2022/11/09 00:47:32;;;;;;;22.02;13.80;;;;;;;10.55;100.00;101119.84;5026626;28;20535;-73
2022/11/09 00:49:58;;;;;;;23.70;14.10;;;;;;;10.64;100.00;101119.09;5027128;28;20029;-73
2022/11/09 00:55:26;;;;;;;23.20;14.23;;;;;;;10.80;100.00;101116.84;5031314;28;20099;-73
2022/11/09 00:57:52;;;;;;;23.55;14.18;;;;;;;10.84;100.00;101113.03;5034421;28;20749;-73
2022/11/09 01:00:22;;;;;;;21.10;14.93;;;;;;;10.88;100.00;101113.56;5030033;28;20031;-73
2022/11/09 01:02:49;;;;;;;22.98;14.55;;;;;;;10.94;100.00;101116.47;5025754;28;20318;-73
2022/11/09 01:05:14;;;;;;;22.92;14.85;;;;;;;10.96;100.00;101111.97;5031926;28;20028;-73
2022/11/09 01:07:39;;;;;;;25.67;14.15;;;;;;;10.98;100.00;101106.63;5034922;28;20108;-73
2022/11/09 01:10:06;;;;;;;20.45;14.60;;;;;;;11.00;100.00;101103.88;5029706;28;20544;-73
2022/11/09 01:12:31;;;;;;;25.30;15.25;;;;;;;11.00;100.00;101102.09;5034652;28;20076;-74
2022/11/09 01:14:57;;;;;;;20.08;14.40;;;;;;;11.00;100.00;101098.66;5029367;28;20030;-73
2022/11/09 01:17:22;;;;;;;18.60;12.85;;;;;;;11.02;100.00;101099.34;5024891;28;20038;-74
2022/11/09 01:19:48;;;;;;;22.60;14.25;;;;;;;11.02;100.00;101094.13;5014902;28;20425;-73
2022/11/09 01:22:14;;;;;;;26.75;15.23;;;;;;;11.01;100.00;101095.91;5027801;28;20040;-74
2022/11/09 01:24:40;;;;;;;20.50;13.82;;;;;;;11.03;100.00;101095.78;5028255;28;20136;-73
2022/11/09 01:27:05;;;;;;;23.48;13.02;;;;;;;11.01;100.00;101092.50;5028292;28;20977;-74
2022/11/09 01:29:31;;;;;;;21.70;13.35;;;;;;;10.96;100.00;101096.31;5028385;28;20067;-73
2022/11/09 01:31:56;;;;;;;21.23;14.02;;;;;;;10.97;100.00;101089.31;5029678;28;20036;-73
2022/11/09 01:34:22;;;;;;;21.77;14.75;;;;;;;10.96;100.00;101085.88;5024193;28;20029;-73
2022/11/09 01:36:51;;;;;;;21.92;14.10;;;;;;;10.95;100.00;101092.06;5027866;28;20584;-73
2022/11/09 01:39:18;;;;;;;23.15;13.82;;;;;;;10.96;100.00;101098.91;5030790;28;20025;-73
2022/11/09 01:41:44;;;;;;;22.35;13.95;;;;;;;10.95;100.00;101089.44;5033980;28;20480;-73
2022/11/09 01:44:12;;;;;;;22.70;13.98;;;;;;;10.91;100.00;101082.84;5026971;28;20086;-73
2022/11/09 01:46:50;;;;;;;23.50;14.18;;;;;;;10.87;100.00;101091.09;5025862;28;20380;-73
2022/11/09 01:49:36;;;;;;;22.05;13.02;;;;;;;10.88;100.00;101077.88;5028532;28;20064;-73
2022/11/09 01:52:06;;;;;;;22.73;13.98;;;;;;;10.87;100.00;101078.84;5028108;28;20041;-73
2022/11/09 01:54:36;;;;;;;23.05;13.68;;;;;;;10.93;100.00;101080.09;5026614;28;20520;-73
2022/11/09 01:57:10;;;;;;;24.27;14.07;;;;;;;10.93;100.00;101077.50;5031371;28;20484;-74
2022/11/09 01:59:40;;;;;;;22.00;14.10;;;;;;;10.93;100.00;101075.72;5028326;28;20185;-73
2022/11/09 02:02:05;;;;;;;18.67;13.18;;;;;;;10.93;100.00;101070.50;5031218;28;20119;-73
2022/11/09 02:05:07;;;;;;;23.65;14.00;;;;;;;10.91;100.00;101069.81;5032254;28;20539;-73
2022/11/09 02:07:33;;;;;;;23.38;14.32;;;;;;;10.91;100.00;101064.59;5029972;28;20033;-73
2022/11/09 02:10:07;;;;;;;21.60;14.90;;;;;;;10.94;100.00;101071.31;5035534;28;20029;-73
2022/11/09 02:12:34;;;;;;;22.25;14.05;;;;;;;11.00;100.00;101076.00;5030449;28;20025;-73
2022/11/09 02:15:04;;;;;;;24.25;14.93;;;;;;;11.02;100.00;101068.06;5028926;28;20040;-73
2022/11/09 02:17:30;;;;;;;20.30;14.88;;;;;;;11.03;100.00;101067.09;5029446;28;20502;-73
2022/11/09 02:19:59;;;;;;;24.83;14.95;;;;;;;11.05;100.00;101075.63;5025482;28;20045;-73
2022/11/09 02:22:25;;;;;;;21.25;13.50;;;;;;;11.06;100.00;101066.84;5031434;28;20045;-73
2022/11/09 02:24:51;;;;;;;20.98;13.82;;;;;;;11.07;100.00;101061.50;5033816;28;20029;-73
2022/11/09 02:27:17;;;;;;;19.85;13.32;;;;;;;11.07;100.00;101058.88;5033682;28;20022;-74
2022/11/09 02:29:46;;;;;;;18.15;13.48;;;;;;;11.06;100.00;101053.81;5022564;28;20033;-74
2022/11/09 02:32:24;;;;;;;17.92;12.15;;;;;;;11.02;100.00;101055.03;5021712;28;20495;-73
2022/11/09 02:34:50;;;;;;;19.75;11.88;;;;;;;10.98;100.00;101054.47;5022225;28;20032;-73
2022/11/09 02:37:34;;;;;;;20.88;12.48;;;;;;;10.91;100.00;101062.00;5025444;28;20120;-73
2022/11/09 02:40:03;;;;;;;24.15;14.13;;;;;;;10.88;100.00;101062.25;5031069;28;20469;-73
2022/11/09 02:42:29;;;;;;;17.95;12.20;;;;;;;10.89;100.00;101055.25;5025434;28;20116;-74
2022/11/09 02:44:58;;;;;;;20.90;13.25;;;;;;;10.85;100.00;101049.50;5024893;28;20536;-73
2022/11/09 02:47:23;;;;;;;18.42;13.10;;;;;;;10.87;100.00;101052.78;5025057;28;20120;-73
2022/11/09 02:49:49;;;;;;;20.00;12.63;;;;;;;10.87;100.00;101057.19;5022933;28;20507;-73
2022/11/09 02:52:15;;;;;;;20.73;12.10;;;;;;;10.85;100.00;101059.94;5026014;28;20492;-73
2022/11/09 02:54:40;;;;;;;20.02;12.55;;;;;;;10.85;100.00;101059.13;5024320;28;20141;-73
2022/11/09 02:57:06;;;;;;;18.58;11.77;;;;;;;10.85;100.00;101054.72;5029510;28;20119;-73
2022/11/09 02:59:31;;;;;;;19.50;12.38;;;;;;;10.86;100.00;101051.16;5024099;28;20322;-73
2022/11/09 03:01:56;;;;;;;19.83;12.57;;;;;;;10.89;100.00;101050.88;5022090;28;20341;-73
2022/11/09 03:04:22;;;;;;;20.10;12.50;;;;;;;10.89;100.00;101055.25;5018900;28;20472;-73
2022/11/09 03:06:48;;;;;;;17.33;12.38;;;;;;;10.88;100.00;101046.59;5026138;28;20042;-73
2022/11/09 03:09:13;;;;;;;20.60;11.20;;;;;;;10.88;100.00;101053.59;5028223;28;20112;-73
2022/11/09 03:11:40;;;;;;;18.58;11.07;;;;;;;10.87;100.00;101047.56;5030710;28;20037;-73
2022/11/09 03:14:08;;;;;;;18.90;11.48;;;;;;;10.88;100.00;101038.78;5025467;28;20033;-73
2022/11/09 03:16:34;;;;;;;16.63;11.32;;;;;;;10.92;100.00;101037.56;5027652;28;20037;-73
2022/11/09 03:19:00;;;;;;;19.38;13.48;;;;;;;10.95;100.00;101033.88;5021100;28;20029;-74
2022/11/09 03:21:27;;;;;;;18.40;12.93;;;;;;;11.00;100.00;101043.91;5023455;28;20583;-73
2022/11/09 03:23:53;;;;;;;19.02;12.82;;;;;;;11.03;100.00;101041.84;5027437;28;20037;-73
2022/11/09 03:26:18;;;;;;;16.20;10.63;;;;;;;11.01;100.00;101041.16;5025938;28;20492;-74
2022/11/09 03:28:44;;;;;;;18.92;12.15;;;;;;;10.98;100.00;101033.59;5029127;28;20068;-73
2022/11/09 03:31:09;;;;;;;17.75;11.90;;;;;;;10.97;100.00;101040.59;5031011;28;20037;-73
2022/11/09 03:33:35;;;;;;;18.52;12.70;;;;;;;10.98;100.00;101047.47;5023900;28;20033;-73
2022/11/09 03:36:01;;;;;;;17.23;11.32;;;;;;;11.00;100.00;101033.47;5022358;28;20029;-73
2022/11/09 03:38:26;;;;;;;16.40;12.25;;;;;;;10.98;100.00;101034.44;5024528;28;20026;-73
2022/11/09 03:40:52;;;;;;;15.40;11.80;;;;;;;11.00;100.00;101031.69;5022995;28;20111;-73
2022/11/09 03:43:17;;;;;;;18.70;13.75;;;;;;;11.03;100.00;101031.44;5026880;28;20053;-73
2022/11/09 03:45:43;;;;;;;18.02;13.05;;;;;;;11.07;100.00;101029.38;5031907;28;20035;-73
2022/11/09 03:48:09;;;;;;;20.10;13.20;;;;;;;11.06;100.00;101038.16;5025955;28;20049;-73
2022/11/09 03:50:39;;;;;;;20.35;12.60;;;;;;;11.04;100.00;101025.25;5022548;28;20108;-73
2022/11/09 03:53:05;;;;;;;19.92;12.35;;;;;;;11.04;100.00;101021.81;5026861;28;20037;-73
2022/11/09 03:55:30;;;;;;;17.73;11.88;;;;;;;11.01;100.00;101016.88;5022307;28;20025;-73
2022/11/09 03:57:56;;;;;;;16.80;10.88;;;;;;;10.98;100.00;101015.34;5023507;28;20103;-72
2022/11/09 04:00:22;;;;;;;16.20;11.35;;;;;;;10.97;100.00;101018.91;5027087;28;20065;-73
2022/11/09 04:02:48;;;;;;;16.85;10.90;;;;;;;10.98;100.00;101018.78;5021798;28;20559;-73
2022/11/09 04:05:14;;;;;;;16.55;11.52;;;;;;;10.97;100.00;101014.53;5017836;28;20133;-74
2022/11/09 04:07:40;;;;;;;17.67;10.25;;;;;;;10.95;100.00;101016.44;5032037;28;20043;-74
2022/11/09 04:10:06;;;;;;;17.92;11.85;;;;;;;10.94;100.00;101006.16;5020534;28;20060;-73
2022/11/09 04:12:31;;;;;;;23.10;12.85;;;;;;;10.98;100.00;101015.34;5026864;28;20029;-73
2022/11/09 04:14:57;;;;;;;21.17;12.32;;;;;;;11.02;100.00;101010.69;5026137;28;20498;-74
2022/11/09 04:17:22;;;;;;;20.13;12.82;;;;;;;11.06;100.00;101012.09;5022945;28;20029;-73
2022/11/09 04:19:48;;;;;;;21.90;12.95;;;;;;;11.07;100.00;101013.72;5024320;28;20029;-73
2022/11/09 04:22:13;;;;;;;17.48;11.98;;;;;;;11.07;100.00;101008.50;5023002;28;20132;-73
2022/11/09 04:24:38;;;;;;;18.80;11.82;;;;;;;11.05;100.00;101011.25;5023560;28;20033;-73
2022/11/09 04:27:04;;;;;;;18.23;12.52;;;;;;;11.06;100.00;101025.94;5021533;28;20034;-73
2022/11/09 04:29:29;;;;;;;18.65;12.52;;;;;;;11.08;100.00;101021.41;5025873;28;20444;-73
2022/11/09 04:31:55;;;;;;;18.77;12.13;;;;;;;11.06;100.00;101012.09;5026731;28;20050;-73
2022/11/09 04:34:20;;;;;;;18.48;11.25;;;;;;;11.05;100.00;101010.44;5030999;28;20029;-73
2022/11/09 04:36:45;;;;;;;20.27;11.52;;;;;;;11.06;100.00;101012.09;5025951;28;20025;-73
2022/11/09 04:39:11;;;;;;;22.02;12.90;;;;;;;11.10;100.00;101013.47;5029503;28;20033;-74
2022/11/09 04:41:36;;;;;;;20.80;12.65;;;;;;;11.14;100.00;101005.25;5027097;28;20113;-73
2022/11/09 04:44:02;;;;;;;20.02;12.15;;;;;;;11.14;100.00;101009.63;5025024;28;20037;-74
2022/11/09 04:46:28;;;;;;;18.27;11.27;;;;;;;11.13;100.00;101014.03;5034081;28;20029;-74
2022/11/09 04:48:54;;;;;;;21.40;11.55;;;;;;;11.11;100.00;101015.13;5031650;28;20071;-74
2022/11/09 04:51:19;;;;;;;16.92;11.70;;;;;;;11.10;100.00;101010.84;5025771;28;20025;-74
2022/11/09 04:53:45;;;;;;;16.25;11.57;;;;;;;11.10;100.00;101003.84;5032899;28;20425;-73
2022/11/09 04:56:11;;;;;;;18.33;11.35;;;;;;;11.09;100.00;101001.38;5029084;28;20029;-73
2022/11/09 04:58:36;;;;;;;19.42;11.27;;;;;;;11.06;100.00;101007.69;5032939;28;20030;-74
2022/11/09 05:01:03;;;;;;;16.40;12.02;;;;;;;11.09;100.00;101004.00;5025390;28;20072;-74
2022/11/09 05:03:28;;;;;;;20.65;12.82;;;;;;;11.12;100.00;101009.75;5028464;28;20029;-73
2022/11/09 05:05:54;;;;;;;21.83;13.60;;;;;;;11.16;100.00;100998.09;5032079;28;20077;-73
2022/11/09 05:08:19;;;;;;;20.88;13.43;;;;;;;11.19;100.00;100992.63;5025324;28;20061;-73
2022/11/09 05:10:45;;;;;;;18.55;12.18;;;;;;;11.19;100.00;100983.97;5027160;28;20034;-73
2022/11/09 05:13:11;;;;;;;23.25;11.55;;;;;;;11.18;100.00;100987.53;5025194;28;20037;-74
2022/11/09 05:15:37;;;;;;;17.08;10.98;;;;;;;11.16;100.00;101002.50;5029175;28;20046;-73
2022/11/09 05:18:03;;;;;;;17.42;10.80;;;;;;;11.15;100.00;101006.88;5028143;28;20132;-73
2022/11/09 05:20:29;;;;;;;16.52;10.50;;;;;;;11.16;100.00;101007.72;5028073;28;20150;-73
2022/11/09 05:25:40;;;;;;;16.38;11.23;;;;;;;11.08;100.00;100991.91;5030039;28;20128;-73
2022/11/09 05:28:06;;;;;;;22.45;11.98;;;;;;;11.05;100.00;100994.78;5031835;28;20041;-73
2022/11/09 05:30:32;;;;;;;18.30;11.52;;;;;;;11.09;100.00;100993.56;5029736;28;20473;-73
2022/11/09 05:32:57;;;;;;;18.20;12.05;;;;;;;11.14;100.00;100994.81;5028547;28;20045;-73
2022/11/09 05:35:22;;;;;;;18.15;11.38;;;;;;;11.15;100.00;100999.06;5032031;28;20516;-73
2022/11/09 05:37:49;;;;;;;16.75;9.70;;;;;;;11.09;100.00;101004.00;5029393;28;20486;-72
2022/11/09 05:40:16;;;;;;;16.33;9.82;;;;;;;11.05;100.00;101000.81;5025109;28;20114;-73
2022/11/09 05:42:42;;;;;;;14.73;10.93;;;;;;;11.04;100.00;101008.78;5030598;28;20040;-74
2022/11/09 05:45:10;;;;;;;18.67;10.02;;;;;;;11.03;100.00;101001.91;5029605;28;20041;-74
2022/11/09 05:47:40;;;;;;;17.02;10.10;;;;;;;11.02;100.00;101000.28;5033882;28;20026;-74
2022/11/09 05:50:08;;;;;;;16.77;11.77;;;;;;;11.05;100.00;100997.41;5030759;28;20111;-74
2022/11/09 05:52:33;;;;;;;16.67;11.05;;;;;;;11.09;100.00;101001.38;5030016;28;20034;-74
2022/11/09 05:54:59;;;;;;;17.10;11.70;;;;;;;11.12;100.00;100996.72;5024891;28;20480;-74
2022/11/09 05:57:25;;;;;;;23.15;14.35;;;;;;;11.16;100.00;100992.88;5027102;28;20439;-74
2022/11/09 05:59:51;;;;;;;19.77;12.95;;;;;;;11.20;100.00;101004.69;5025555;28;20523;-74
2022/11/09 06:02:16;;;;;;;20.00;12.85;;;;;;;11.23;100.00;101011.44;5030230;28;20029;-75
2022/11/09 06:04:42;;;;;;;18.58;12.57;;;;;;;11.26;100.00;101019.00;5030550;28;20029;-74
2022/11/09 06:07:07;;;;;;;19.58;12.77;;;;;;;11.25;100.00;101023.38;5026983;28;20459;-74
2022/11/09 06:09:33;;;;;;;19.73;12.75;;;;;;;11.19;100.00;101029.13;5022041;28;20065;-74
2022/11/09 06:11:58;;;;;;;16.92;11.50;;;;;;;11.17;100.00;101023.22;5029686;28;20060;-74
2022/11/09 06:14:23;;;;;;;21.00;11.00;;;;;;;11.15;100.00;101026.94;5032088;28;20033;-74
2022/11/09 06:16:49;;;;;;;19.75;12.90;;;;;;;11.16;100.00;101032.00;5035253;28;20068;-74
2022/11/09 06:19:14;;;;;;;23.15;13.38;;;;;;;11.20;100.00;101036.00;5028025;28;20041;-75
2022/11/09 06:21:40;;;;;;;17.70;12.38;;;;;;;11.20;100.00;101036.00;5027923;28;20040;-74
2022/11/09 06:24:06;;;;;;;20.13;12.13;;;;;;;11.15;100.00;101034.75;5023784;28;20033;-73
2022/11/09 06:26:31;;;;;;;24.25;12.23;;;;;;;11.07;100.00;101040.63;5026840;28;20037;-74
2022/11/09 06:28:56;;;;;;;17.73;12.63;;;;;;;11.03;100.00;101035.81;5025272;28;20456;-74
2022/11/09 06:31:22;;;;;;;21.20;11.95;;;;;;;11.04;100.00;101037.47;5032371;28;20029;-74
2022/11/09 06:33:47;;;;;;;19.92;11.45;;;;;;;11.03;100.00;101044.47;5025043;28;20099;-74
2022/11/09 06:36:13;;;;;;;21.77;13.27;;;;;;;11.07;100.00;101039.81;5028194;28;20037;-73
2022/11/09 06:38:39;;;;;;;22.83;11.63;;;;;;;11.10;100.00;101034.31;5024119;28;20465;-74
2022/11/09 06:41:05;;;;;;;22.85;12.70;;;;;;;11.13;100.00;101034.06;5028077;28;20029;-73
2022/11/09 06:43:31;;;;;;;20.58;12.27;;;;;;;11.14;100.00;101033.94;5026751;28;20094;-74
2022/11/09 06:45:56;;;;;;;18.75;12.20;;;;;;;11.15;100.00;101040.78;5026334;28;20037;-74
2022/11/09 06:48:22;;;;;;;22.08;12.77;;;;;;;11.18;100.00;101039.69;5025250;28;20116;-74
2022/11/09 06:50:48;;;;;;;17.90;11.98;;;;;;;11.20;100.00;101043.00;5029936;28;20114;-74
2022/11/09 06:53:15;;;;;;;18.60;12.23;;;;;;;11.22;100.00;101035.88;5024871;28;20437;-73
2022/11/09 06:55:41;;;;;;;21.63;13.73;;;;;;;11.26;100.00;101035.47;5026273;28;20029;-74
2022/11/09 06:58:15;;;;;;;23.90;14.05;;;;;;;11.32;100.00;101035.88;5024450;28;20344;-74
2022/11/09 07:00:42;;;;;;;24.88;13.50;;;;;;;11.38;100.00;101038.75;5029334;28;20048;-73
2022/11/09 07:03:07;;;;;;;21.70;14.80;;;;;;;11.44;100.00;101047.81;5027954;28;20564;-74
2022/11/09 07:05:37;;;;;;;23.75;15.60;;;;;;;11.48;100.00;101049.19;5021624;28;20069;-73
2022/11/09 07:08:03;;;;;;;25.80;15.32;;;;;;;11.51;100.00;101044.53;5024396;28;20120;-74
2022/11/09 07:10:28;;;;;;;25.42;14.15;;;;;;;11.51;100.00;101046.31;5024068;28;20173;-74
2022/11/09 07:12:57;;;;;;;22.85;14.55;;;;;;;11.46;100.00;101054.56;5017036;28;20071;-74
2022/11/09 07:15:22;;;;;;;27.45;14.32;;;;;;;11.46;100.00;101056.34;5022697;28;20049;-74
2022/11/09 07:17:48;;;;;;;22.48;14.45;;;;;;;11.49;100.00;101051.69;5010584;28;20422;-74
2022/11/09 07:20:13;;;;;;;21.25;13.68;;;;;;;11.48;100.00;101060.47;5018858;28;20105;-73
2022/11/09 07:22:40;;;;;;;19.73;13.77;;;;;;;11.48;100.00;101055.25;5012903;28;20463;-73
2022/11/09 07:25:07;;;;;;;22.02;13.45;;;;;;;11.44;100.00;101059.09;5024990;28;20041;-75
2022/11/09 07:27:33;;;;;;;18.80;13.25;;;;;;;11.45;100.00;101055.50;5016520;28;20033;-74
2022/11/09 07:29:58;;;;;;;20.50;13.00;;;;;;;11.44;100.00;101048.66;5016495;28;20576;-74
2022/11/09 07:32:24;;;;;;;24.45;13.90;;;;;;;11.44;100.00;101056.47;5013558;28;20113;-74
2022/11/09 07:34:49;;;;;;;29.75;15.57;;;;;;;11.41;100.00;101054.13;5016775;28;20033;-73
2022/11/09 07:37:15;;;;;;;21.30;13.95;;;;;;;11.41;100.00;101051.53;5019867;28;20404;-73
2022/11/09 07:39:40;;;;;;;19.83;13.10;;;;;;;11.45;100.00;101050.31;5013673;28;20061;-73
2022/11/09 07:42:06;;;;;;;23.48;14.32;;;;;;;11.51;100.00;101043.72;5009922;28;20036;-73
2022/11/09 07:44:31;;;;;;;24.75;15.30;;;;;;;11.57;100.00;101054.44;5019025;28;20546;-73
2022/11/09 07:46:57;;;;;;;22.60;13.77;;;;;;;11.56;100.00;101047.56;5024490;28;20544;-74
2022/11/09 07:49:22;;;;;;;23.30;12.80;;;;;;;11.57;100.00;101049.22;5019611;28;20060;-73
2022/11/09 07:51:48;;;;;;;21.33;14.57;;;;;;;11.59;100.00;101055.13;5024440;28;20507;-73
2022/11/09 07:54:13;;;;;;;26.25;15.15;;;;;;;11.62;100.00;101054.03;5022473;28;20468;-73
2022/11/09 07:56:38;;;;;;;18.80;14.13;;;;;;;11.60;100.00;101059.38;5028844;28;20033;-73
2022/11/09 07:59:04;;;;;;;26.85;15.00;;;;;;;11.56;100.00;101046.75;5022626;28;20026;-74
2022/11/09 08:01:29;;;;;;;20.92;15.02;;;;;;;11.55;100.00;101053.75;5031209;28;20512;-73
2022/11/09 08:03:55;;;;;;;21.92;14.63;;;;;;;11.57;100.00;101049.22;5022486;28;20053;-73
2022/11/09 08:06:21;;;;;;;20.52;12.93;;;;;;;11.54;100.00;101051.28;5023321;28;20033;-73
2022/11/09 08:08:48;;;;;;;24.25;13.85;;;;;;;11.49;100.00;101053.47;5022034;28;20052;-72
2022/11/09 08:11:14;;;;;;;26.38;14.20;;;;;;;11.46;100.00;101049.34;5027768;28;20396;-72
2022/11/09 08:13:39;;;;;;;24.10;14.57;;;;;;;11.43;100.00;101052.22;5027584;28;20022;-72
2022/11/09 08:16:05;;;;;;;24.60;13.43;;;;;;;11.47;100.00;101051.00;5031931;28;20036;-73
2022/11/09 08:18:31;;;;;;;25.35;13.48;;;;;;;11.48;100.00;101055.25;5025462;28;20041;-73
2022/11/09 08:20:56;;;;;;;21.73;12.90;;;;;;;11.51;100.00;101056.75;5028204;28;20030;-73
2022/11/09 08:23:22;;;;;;;27.95;15.30;;;;;;;11.54;100.00;101052.09;5027554;28;20360;-73
2022/11/09 08:25:49;;;;;;;22.55;14.10;;;;;;;11.56;100.00;101058.00;5027645;28;20120;-73
2022/11/09 08:28:15;;;;;;;27.02;14.40;;;;;;;11.60;100.00;101046.34;5026864;28;20447;-70
2022/11/09 08:30:44;;;;;;;23.70;14.52;;;;;;;11.67;100.00;101044.00;5026715;28;20028;-72
2022/11/09 08:33:10;;;;;;;26.58;15.30;;;;;;;11.74;100.00;101041.66;5030115;28;20029;-73
2022/11/09 08:35:36;;;;;;;28.20;15.18;;;;;;;11.78;100.00;101043.06;5018402;28;20041;-72
2022/11/09 08:38:04;;;;;;;27.17;14.00;;;;;;;11.81;100.00;101050.63;5034190;28;20531;-72
2022/11/09 08:40:31;;;;;;;28.90;15.00;;;;;;;11.90;100.00;101049.78;5025710;28;20056;-72
2022/11/09 08:43:03;;;;;;;19.60;14.25;;;;;;;11.94;100.00;101049.38;5030487;28;20349;-73
2022/11/09 08:45:32;;;;;;;20.42;13.30;;;;;;;11.95;100.00;101052.81;5023982;28;20404;-73
2022/11/09 08:47:58;;;;;;;22.25;13.30;;;;;;;11.88;100.00;101049.91;5027900;28;20056;-73
2022/11/09 08:50:25;;;;;;;26.90;13.50;;;;;;;11.82;100.00;101057.47;5033045;28;20486;-73
2022/11/09 08:52:50;;;;;;;22.85;12.52;;;;;;;11.81;100.00;101056.69;5025035;28;20030;-73
2022/11/09 08:55:16;;;;;;;21.30;12.93;;;;;;;11.84;100.00;101051.16;5026088;28;20042;-72
2022/11/09 08:57:41;;;;;;;26.38;14.10;;;;;;;11.88;100.00;101043.88;5025558;28;20037;-73
2022/11/09 09:00:07;;;;;;;28.80;15.45;;;;;;;11.93;100.00;101055.56;5025398;28;20049;-72
2022/11/09 09:02:33;;;;;;;24.50;15.35;;;;;;;11.96;100.00;101057.88;5026995;28;20375;-72
2022/11/09 09:04:58;;;;;;;26.27;15.95;;;;;;;12.01;100.00;101057.47;5031008;28;20115;-73
2022/11/09 09:07:24;;;;;;;29.45;17.13;;;;;;;12.07;100.00;101062.13;5032588;28;20037;-73
2022/11/09 09:09:49;;;;;;;26.15;15.90;;;;;;;12.10;100.00;101064.47;5025461;28;20127;-73
2022/11/09 09:12:15;;;;;;;27.55;15.88;;;;;;;12.06;100.00;101065.72;5024941;28;20469;-73
2022/11/09 09:14:40;;;;;;;23.77;15.45;;;;;;;12.09;100.00;101062.81;5028212;28;20599;-72
2022/11/09 09:17:06;;;;;;;28.35;14.63;;;;;;;12.13;100.00;101065.97;5026904;28;20499;-73
2022/11/09 09:19:31;;;;;;;25.08;16.35;;;;;;;12.12;100.00;101070.38;5037452;28;20348;-72
2022/11/09 09:21:57;;;;;;;22.80;14.02;;;;;;;12.07;100.00;101066.53;5051419;28;20060;-72
2022/11/09 09:24:23;;;;;;;21.23;14.30;;;;;;;12.03;100.00;101067.78;5051038;28;20028;-73
2022/11/09 09:26:48;;;;;;;20.35;13.27;;;;;;;11.96;100.00;101068.34;5052356;28;20045;-73
2022/11/09 09:29:14;;;;;;;23.63;13.93;;;;;;;11.93;100.00;101059.94;5051745;28;23405;-73
2022/11/09 09:31:40;;;;;;;20.50;13.20;;;;;;;11.92;100.00;101058.28;5052409;28;20025;-73
2022/11/09 09:34:06;;;;;;;25.17;15.40;;;;;;;11.94;100.00;101051.97;5051764;28;20076;-73
2022/11/09 09:36:31;;;;;;;25.45;14.75;;;;;;;11.96;100.00;101059.66;5052074;28;20036;-73
2022/11/09 09:38:57;;;;;;;24.15;13.48;;;;;;;12.00;100.00;101058.44;5051545;28;20063;-72
2022/11/09 09:41:53;;;;;;;22.95;15.00;;;;;;;12.08;100.00;101058.56;5051957;28;20025;-73
2022/11/09 09:44:40;;;;;;;22.15;14.48;;;;;;;12.19;100.00;101062.81;5051536;28;20086;-73
2022/11/09 09:47:13;;;;;;;37.22;15.75;;;;;;;12.30;100.00;101060.00;5051435;28;20808;-72
2022/11/09 09:49:46;;;;;;;26.73;15.48;;;;;;;12.38;100.00;101069.75;5048540;28;20080;-73
2022/11/09 09:52:21;;;;;;;24.00;15.10;;;;;;;12.43;100.00;101065.78;5045381;28;20052;-72
2022/11/09 09:55:08;;;;;;;23.75;14.23;;;;;;;12.44;100.00;101059.56;5040549;28;20048;-72
2022/11/09 09:57:36;;;;;;;21.27;13.65;;;;;;;12.48;100.00;101060.94;5040485;28;20033;-72
2022/11/09 10:00:06;;;;;;;27.58;16.38;;;;;;;12.54;100.00;101067.41;5043861;28;20037;-73
2022/11/09 10:02:36;;;;;;;22.98;16.30;;;;;;;12.57;100.00;101065.31;5030668;28;20038;-73
2022/11/09 10:05:08;;;;;;;30.80;17.30;;;;;;;12.61;100.00;101065.84;5031018;28;20090;-73
2022/11/09 10:07:41;;;;;;;28.67;17.10;;;;;;;12.57;100.00;101054.88;5031743;28;20382;-73
2022/11/09 10:10:34;;;;;;;24.33;17.77;;;;;;;12.58;100.00;101055.69;5030826;28;20117;-73
2022/11/09 10:13:18;;;;;;;32.88;18.42;;;;;;;12.65;100.00;101058.56;5029753;28;20029;-73
2022/11/09 10:15:53;;;;;;;28.17;17.98;;;;;;;12.68;100.00;101053.03;5031288;28;20037;-72
2022/11/09 10:18:40;;;;;;;25.73;18.08;;;;;;;12.61;100.00;101043.16;5029423;28;20053;-73
2022/11/09 10:21:22;;;;;;;43.58;29.15;;;;;;;12.62;100.00;101042.19;5030552;28;20037;-73
2022/11/09 10:24:06;;;;;;;29.23;19.55;;;;;;;12.68;100.00;101043.41;5030736;28;20099;-73
2022/11/09 10:26:39;;;;;;;30.27;20.17;;;;;;;12.76;100.00;101043.47;5031101;28;20377;-73
2022/11/09 10:29:25;;;;;;;32.72;21.70;;;;;;;12.76;100.00;101035.63;5029947;28;20127;-73
2022/11/09 10:31:56;;;;;;;30.88;20.35;;;;;;;12.81;100.00;101036.03;5030816;28;20041;-72
2022/11/09 10:35:01;;;;;;;29.02;19.88;;;;;;;12.84;100.00;101032.31;5023285;28;20445;-72
2022/11/09 10:37:39;;;;;;;45.10;20.35;;;;;;;12.80;100.00;101029.16;5028767;28;20389;-72
2022/11/09 10:40:08;;;;;;;29.25;18.58;;;;;;;12.83;100.00;101028.88;5029087;28;20107;-72
2022/11/09 10:42:34;;;;;;;31.98;20.00;;;;;;;12.82;100.00;101029.84;5028482;28;20067;-72
2022/11/09 10:45:10;;;;;;;26.60;19.25;;;;;;;12.80;100.00;101030.94;5027824;28;20166;-72
2022/11/09 10:47:50;;;;;;;28.95;18.98;;;;;;;12.72;100.00;101033.50;5028357;28;20088;-72
2022/11/09 10:50:37;;;;;;;33.28;19.52;;;;;;;12.65;100.00;101040.25;5028097;28;20043;-71
2022/11/09 10:53:18;;;;;;;27.67;16.08;;;;;;;12.53;100.00;101032.59;5027757;28;20053;-72
2022/11/09 10:56:09;;;;;;;29.70;16.63;;;;;;;12.47;100.00;101027.09;5028436;28;20496;-72
2022/11/09 10:58:36;;;;;;;25.95;16.95;;;;;;;12.45;100.00;101029.03;5028418;28;20049;-73
2022/11/09 11:01:11;;;;;;;27.23;15.95;;;;;;;12.48;100.00;101040.03;5027672;28;20056;-73
2022/11/09 11:03:38;;;;;;;23.43;16.40;;;;;;;12.52;100.00;101035.34;5028341;28;20037;-72
2022/11/09 11:06:14;;;;;;;26.10;16.17;;;;;;;12.58;100.00;101029.56;5027822;28;20576;-73
2022/11/09 11:08:44;;;;;;;22.02;13.75;;;;;;;12.64;100.00;101028.97;5028384;28;20033;-72
2022/11/09 11:11:21;;;;;;;21.35;15.05;;;;;;;12.67;100.00;101027.88;5027759;28;20064;-73